עמוד ראשי
METAR-TAF:

METAR-TAF

שדות תעופה :

Ulukhaktok, הטריטוריות הצפון-מערביות, קנדה

קו רוחב: 70-46N, קו אורך: 117-48W, גובה: 36מטר

תצפית מזג אוויר נוכחית

הדו"ח נערך לפני 1 שעות ו 12דקות, בשעה 20:00 UTC
רוח 12קשר מכיוון צפון עם משבים עד 18קשר
טמפרטורת 6 צלסיוס
לחות 65%
לחץ 1009 hPa
ראות: 24.1קילומטר
עננים בינוניים בגובה 2900רגל

METAR: CYHI 172000Z 01012G18KT 15SM BKN029 06/M00 A2981 RMK SC7 CIG RAG SLP099

זמן: 15:12 (21:12 UTC)

תחזית

הדו"ח נערך לפני 2 שעות ו 32דקות, בשעה 18:40 UTC
תחזית בתוקף מ 17 ב 19 UTC עד 17 ב 24 UTC
רוח 12קשר מכיוון צפון
ראות: 10קילומטר
עננים פזורים בגובה 1200רגל
מעונן בגובה 2500רגל
זמנית מ -
17 ב 19 UTC עד 17 ב 24 UTC
עננים פזורים בגובה 800רגל
מעונן בגובה 1200רגל

TAF: CYHI 171840Z 1719/1724 36012KT P6SM SCT012 OVC025 TEMPO 1719/1724 SCT008 OVC012 RMK NXT FCST BY 181600Z

תצפיות ותחזיות מזג אוויר לגבי יותר מ- 4,000 שדות תעופה ברחבי העולם. דוחות METAR ו- TAF.

התחנות הזמינות מסומנות בנקודות צהובות ואדומות על גבי המפה.

העבר את העכבר לנקודה הצבעונית על מנת לראות את שם התחנה.

לאחר מכן, לחץ כדי לראות את תוכן ואת תחזיות מזג האוויר.

כדי לשנות את המפה: לחץ על הכפתורים הירוקים עם הפלוס השחור כדי להתקרב; על הכפתור הירוק עם המקף כדי להתרחק; או בחיצים הירוקים למפות סמוכות.


METAR-TAF: